Detall de PIREP

Printer-friendly versionPDF version

[2008/12/18 20:46:00]
Flight IATA:CT0001
Pilot Number:041
Company ICAO:CAT
Aircraft Type:BE20/A
PAX:4
Departing Airport: LEIB
Destination Airport: LEPA
Alternate Airport:LEMH
Online: VATSIM
Route:MJV2R IZA1M
Flight Level:A4000
No Slew and time accel
No pause
Crash detect
Detect pilot in Cockpit between each 30 and 45 minutes
20:46 Zero fuel Weight: 9497 Lbs, Fuel Weight: 2014 Lbs
20:46 VATSIM:LEIB 182030Z 00000KT CAVOK 06/04 Q1021 NOSIG
20:46 VATSIM:LEPA 182030Z 12003KT 9999 FEW035 11/06 Q1021 NOSIG
20:46 VOICE CATALONIAN
20:49 Parking Brakes off
20:57 Take-off
20:57 Take off Weight: 11457 Lbs
20:57 Wind: 354º @ 002 Knots Heading: 060º
20:57 POS N38º 52´ 20´´ E001º 22´ 19´´
20:57 Gear Up: 140 Knots
20:57 Flaps:1 at 140 Knots
20:58 Flaps:0 at 132 Knots
21:12 Wind:327º@018 Knots Heading: 047º Ground Speed: 224 Knots Altitude 4002 ft
21:27 Wind:345º@013 Knots Head
ing: 052º Ground Speed: 212 Knots Altitude 2319 ft
21:27 Flaps:1 at 216 Knots
21:27 Gear Down: 208 Knots
21:28 Flaps:2 at 175 Knots
21:29 TouchDown:Rate -492 ft/min Speed: 123 Knots
21:29 Flaps:0 at 112 Knots
21:29 VATSIM:LEPA 182100Z 05005KT 340V090 9999 FEW030 SCT050 11/07 Q1021 NOSIG
21:29 Land
21:29 Wind:122º@003 Knots
21:29 Heading: 057º
21:29 Flight Duration: 00:32
21:29 Landing Weight: 11110 Lbs
21:29 POS N39º 33´ 06´´ E002º 43´ 13´´
21:33 Parking brakes on
21:33 Block to Block Duration: 00:44
21:33 Final Fuel: 1593 Lbls
21:33 Spent Fuel: 421 Lbls
21:33 Flight Length: 113 NM
21:33 TOD Land Length: 113 NM

Exportar CSV

Powered by Drupal - Modified by Danger4k